Time;durP1;ratioP1;P1;durP2;ratioP2;P2;SDS_P1;SDS_P2;PMS_P1;PMS_P2;Temp;Humidity;BMP_temperature;BMP_pressure;BME280_temperature;BME280_humidity;BME280_pressure;Samples;Min_cycle;Max_cycle;Signal;HPM_P1;HPM_P2
2023/12/28 00:00:14;;;;;;;;;;;;;;;;;;2205749;66;2097;-22
2023/12/28 00:02:45;;;;;;;;;;;;;;;;;;2204984;66;2510;-22
2023/12/28 00:05:15;;;;;;;;;;;;;;;;;;2204923;66;1915;-21
2023/12/28 00:07:45;;;;;;;;;;;;;;;;;;2205707;58;2903;-22
2023/12/28 00:10:15;;;;;;;;;;;;;;;;;;2208087;59;2337;-21
2023/12/28 00:12:46;;;;;;;;;;;;;;;;;;2206275;59;2528;-22
2023/12/28 00:15:16;;;;;;;;;;;;;;;;;;2207576;58;2682;-22
2023/12/28 00:17:46;;;;;;;;;;;;;;;;;;2205247;59;2749;-22
2023/12/28 00:20:16;;;;;;;;;;;;;;;;;;2207635;59;2087;-22
2023/12/28 00:22:46;;;;;;;;;;;;;;;;;;2206883;59;2197;-22
2023/12/28 00:25:17;;;;;;;;;;;;;;;;;;2206403;59;2130;-22
2023/12/28 00:27:47;;;;;;;;;;;;;;;;;;2208494;59;1982;-22
2023/12/28 00:30:17;;;;;;;;;;;;;;;;;;2206577;58;5083;-21
2023/12/28 00:32:47;;;;;;;;;;;;;;;;;;2206422;59;2148;-22
2023/12/28 00:35:18;;;;;;;;;;;;;;;;;;2210105;59;3026;-21
2023/12/28 00:37:48;;;;;;;;;;;;;;;;;;2207028;59;4001;-22
2023/12/28 00:40:19;;;;;;;;;;;;;;;;;;2207514;59;2974;-22
2023/12/28 00:42:49;;;;;;;;;;;;;;;;;;2206591;59;2056;-22
2023/12/28 00:45:26;;;;;;;;;;;;;;;;;;2208749;59;2472;-21
2023/12/28 00:47:56;;;;;;;;;;;;;;;;;;2209820;59;2308;-22
2023/12/28 00:50:31;;;;;;;;;;;;;;;;;;2209043;59;2040;-22
2023/12/28 00:53:01;;;;;;;;;;;;;;;;;;2209074;59;2751;-22
2023/12/28 00:55:32;;;;;;;;;;;;;;;;;;2210634;66;2617;-22
2023/12/28 00:58:02;;;;;;;;;;;;;;;;;;2207909;66;1914;-22
2023/12/28 01:00:32;;;;;;;;;;;;;;;;;;2208723;59;2095;-22
2023/12/28 01:03:03;;;;;;;;;;;;;;;;;;2208468;59;2376;-22
2023/12/28 01:05:35;;;;;;;;;;;;;;;;;;2207807;58;1961;-21
2023/12/28 01:08:09;;;;;;;;;;;;;;;;;;2207868;58;2465;-20
2023/12/28 01:10:39;;;;;;;;;;;;;;;;;;2206392;59;2279;-21
2023/12/28 01:13:09;;;;;;;;;;;;;;;;;;2207406;58;1845;-21
2023/12/28 01:15:40;;;;;;;;;;;;;;;;;;2203757;59;2202;-22
2023/12/28 01:18:10;;;;;;;;;;;;;;;;;;2205907;59;2459;-21
2023/12/28 01:20:41;;;;;;;;;;;;;;;;;;2206863;59;2323;-21
2023/12/28 01:23:11;;;;;;;;;;;;;;;;;;2208757;59;2240;-21
2023/12/28 01:25:41;;;;;;;;;;;;;;;;;;2207484;59;2353;-21
2023/12/28 01:28:11;;;;;;;;;;;;;;;;;;2207940;59;1797;-22
2023/12/28 01:30:43;;;;;;;;;;;;;;;;;;2205943;66;1988;-21
2023/12/28 01:33:14;;;;;;;;;;;;;;;;;;2206890;59;2293;-21
2023/12/28 01:35:44;;;;;;;;;;;;;;;;;;2206831;66;2278;-21
2023/12/28 01:38:14;;;;;;;;;;;;;;;;;;2207910;58;1741;-21
2023/12/28 01:40:45;;;;;;;;;;;;;;;;;;2206213;59;2987;-21
2023/12/28 01:43:15;;;;;;;;;;;;;;;;;;2208101;59;1843;-21
2023/12/28 01:45:46;;;;;;;;;;;;;;;;;;2207123;59;3492;-21
2023/12/28 01:48:17;;;;;;;;;;;;;;;;;;2208582;59;2500;-21
2023/12/28 01:50:47;;;;;;;;;;;;;;;;;;2204861;59;2028;-21
2023/12/28 01:53:18;;;;;;;;;;;;;;;;;;2208194;59;3180;-21
2023/12/28 01:55:48;;;;;;;;;;;;;;;;;;2199325;59;1984;-22
2023/12/28 01:58:19;;;;;;;;;;;;;;;;;;2208297;59;2020;-22
2023/12/28 02:00:50;;;;;;;;;;;;;;;;;;2206543;59;2347;-22
2023/12/28 02:03:20;;;;;;;;;;;;;;;;;;2208682;59;2872;-22
2023/12/28 02:05:51;;;;;;;;;;;;;;;;;;2207147;59;1928;-21
2023/12/28 02:08:21;;;;;;;;;;;;;;;;;;2207082;66;1781;-21
2023/12/28 02:10:51;;;;;;;;;;;;;;;;;;2206697;59;2614;-21
2023/12/28 02:13:22;;;;;;;;;;;;;;;;;;2208748;58;1870;-21
2023/12/28 02:15:57;;;;;;;;;;;;;;;;;;2207909;59;1823;-21
2023/12/28 02:18:34;;;;;;;;;;;;;;;;;;2208102;59;1988;-21
2023/12/28 02:21:05;;;;;;;;;;;;;;;;;;2206750;59;2166;-21
2023/12/28 02:23:35;;;;;;;;;;;;;;;;;;2208602;59;2408;-21
2023/12/28 02:26:06;;;;;;;;;;;;;;;;;;2204559;59;2365;-22
2023/12/28 02:28:36;;;;;;;;;;;;;;;;;;2205484;59;1900;-21
2023/12/28 02:31:10;;;;;;;;;;;;;;;;;;2208690;59;2176;-22
2023/12/28 02:33:54;;;;;;;;;;;;;;;;;;2208507;59;2423;-22
2023/12/28 02:36:26;;;;;;;;;;;;;;;;;;2208207;59;2035;-22
2023/12/28 02:38:58;;;;;;;;;;;;;;;;;;2210751;66;2022;-22
2023/12/28 02:41:30;;;;;;;;;;;;;;;;;;2208016;63;1792;-22
2023/12/28 02:44:31;;;;;;;;;;;;;;;;;;2207363;59;1934;-22
2023/12/28 02:47:01;;;;;;;;;;;;;;;;;;2205883;66;2820;-22
2023/12/28 02:49:32;;;;;;;;;;;;;;;;;;2204456;66;2082;-22
2023/12/28 02:52:02;;;;;;;;;;;;;;;;;;2206854;66;2880;-22
2023/12/28 02:54:32;;;;;;;;;;;;;;;;;;2208722;66;2505;-22
2023/12/28 02:57:03;;;;;;;;;;;;;;;;;;2208587;59;2256;-22
2023/12/28 02:59:33;;;;;;;;;;;;;;;;;;2208501;59;2697;-21
2023/12/28 03:02:03;;;;;;;;;;;;;;;;;;2208532;58;2767;-21
2023/12/28 03:04:34;;;;;;;;;;;;;;;;;;2209274;59;1798;-22
2023/12/28 03:07:08;;;;;;;;;;;;;;;;;;2207623;58;2234;-21
2023/12/28 03:09:39;;;;;;;;;;;;;;;;;;2206690;59;3011;-21
2023/12/28 03:12:09;;;;;;;;;;;;;;;;;;2208100;59;2549;-21
2023/12/28 03:14:40;;;;;;;;;;;;;;;;;;2208822;58;2351;-21
2023/12/28 03:17:11;;;;;;;;;;;;;;;;;;2207374;59;1997;-21
2023/12/28 03:19:42;;;;;;;;;;;;;;;;;;2206096;66;2455;-21
2023/12/28 03:22:12;;;;;;;;;;;;;;;;;;2208566;63;2197;-21
2023/12/28 03:24:42;;;;;;;;;;;;;;;;;;2206892;59;2524;-21
2023/12/28 03:27:12;;;;;;;;;;;;;;;;;;2206687;59;2220;-21
2023/12/28 03:29:43;;;;;;;;;;;;;;;;;;2206308;59;2421;-21
2023/12/28 03:32:14;;;;;;;;;;;;;;;;;;2207726;59;2574;-21
2023/12/28 03:34:44;;;;;;;;;;;;;;;;;;2205077;59;1839;-21
2023/12/28 03:37:14;;;;;;;;;;;;;;;;;;2206769;59;1861;-21
2023/12/28 03:39:45;;;;;;;;;;;;;;;;;;2205256;59;2622;-21
2023/12/28 03:42:15;;;;;;;;;;;;;;;;;;2206445;59;2713;-21
2023/12/28 03:44:46;;;;;;;;;;;;;;;;;;2204066;59;2699;-21
2023/12/28 03:47:16;;;;;;;;;;;;;;;;;;2205833;59;1921;-21
2023/12/28 03:49:46;;;;;;;;;;;;;;;;;;2205762;66;2019;-21
2023/12/28 03:52:16;;;;;;;;;;;;;;;;;;2207937;59;2018;-22
2023/12/28 03:54:47;;;;;;;;;;;;;;;;;;2206273;59;1867;-21
2023/12/28 03:57:17;;;;;;;;;;;;;;;;;;2205752;59;1971;-21
2023/12/28 03:59:47;;;;;;;;;;;;;;;;;;2206132;66;2434;-21
2023/12/28 04:02:17;;;;;;;;;;;;;;;;;;2206936;59;2143;-21
2023/12/28 04:04:48;;;;;;;;;;;;;;;;;;2208454;66;2872;-21
2023/12/28 04:07:18;;;;;;;;;;;;;;;;;;2208576;58;2099;-21
2023/12/28 04:09:48;;;;;;;;;;;;;;;;;;2204960;59;2510;-21
2023/12/28 04:12:18;;;;;;;;;;;;;;;;;;2207629;58;2589;-21
2023/12/28 04:14:48;;;;;;;;;;;;;;;;;;2207134;58;3572;-21
2023/12/28 04:17:19;;;;;;;;;;;;;;;;;;2207197;59;1910;-21
2023/12/28 04:19:49;;;;;;;;;;;;;;;;;;2206769;59;2573;-21
2023/12/28 04:22:19;;;;;;;;;;;;;;;;;;2207512;66;2006;-21
2023/12/28 04:24:50;;;;;;;;;;;;;;;;;;2207200;66;1935;-21
2023/12/28 04:27:20;;;;;;;;;;;;;;;;;;2208191;66;2404;-21
2023/12/28 04:29:50;;;;;;;;;;;;;;;;;;2206557;66;1948;-21
2023/12/28 04:32:20;;;;;;;;;;;;;;;;;;2207415;59;2200;-21
2023/12/28 04:34:51;;;;;;;;;;;;;;;;;;2208448;59;2038;-20
2023/12/28 04:37:21;;;;;;;;;;;;;;;;;;2207283;59;2852;-21
2023/12/28 04:39:52;;;;;;;;;;;;;;;;;;2206040;59;2825;-21
2023/12/28 04:42:23;;;;;;;;;;;;;;;;;;2206822;59;2398;-21
2023/12/28 04:44:53;;;;;;;;;;;;;;;;;;2205625;59;2789;-21
2023/12/28 04:47:23;;;;;;;;;;;;;;;;;;2202992;59;2024;-21
2023/12/28 04:49:57;;;;;;;;;;;;;;;;;;2207718;59;2445;-21
2023/12/28 04:52:27;;;;;;;;;;;;;;;;;;2208600;66;2456;-21
2023/12/28 04:54:58;;;;;;;;;;;;;;;;;;2205613;59;2497;-21
2023/12/28 04:57:28;;;;;;;;;;;;;;;;;;2208839;59;1760;-21
2023/12/28 04:59:58;;;;;;;;;;;;;;;;;;2205136;66;2018;-21
2023/12/28 05:02:29;;;;;;;;;;;;;;;;;;2206829;59;2038;-21
2023/12/28 05:04:59;;;;;;;;;;;;;;;;;;2205121;66;2296;-21
2023/12/28 05:07:29;;;;;;;;;;;;;;;;;;2206314;58;2795;-21
2023/12/28 05:09:59;;;;;;;;;;;;;;;;;;2205530;59;2123;-21
2023/12/28 05:12:30;;;;;;;;;;;;;;;;;;2206818;59;2703;-21
2023/12/28 05:15:00;;;;;;;;;;;;;;;;;;2203818;59;2876;-21
2023/12/28 05:17:36;;;;;;;;;;;;;;;;;;2208818;66;2401;-21
2023/12/28 05:20:07;;;;;;;;;;;;;;;;;;2205960;66;2189;-21
2023/12/28 05:22:37;;;;;;;;;;;;;;;;;;2206369;66;2372;-21
2023/12/28 05:25:07;;;;;;;;;;;;;;;;;;2205373;59;2429;-21
2023/12/28 05:27:37;;;;;;;;;;;;;;;;;;2206664;59;2342;-21
2023/12/28 05:30:08;;;;;;;;;;;;;;;;;;2205893;58;2042;-21
2023/12/28 05:32:38;;;;;;;;;;;;;;;;;;2206203;59;3248;-21
2023/12/28 05:35:08;;;;;;;;;;;;;;;;;;2206771;66;1611;-21
2023/12/28 05:37:38;;;;;;;;;;;;;;;;;;2206457;66;2252;-21
2023/12/28 05:40:11;;;;;;;;;;;;;;;;;;2207022;66;1998;-20
2023/12/28 05:42:42;;;;;;;;;;;;;;;;;;2206380;59;2231;-21
2023/12/28 05:45:12;;;;;;;;;;;;;;;;;;2203869;59;1955;-21
2023/12/28 05:47:42;;;;;;;;;;;;;;;;;;2206478;66;1793;-21
2023/12/28 05:50:13;;;;;;;;;;;;;;;;;;2206945;59;1992;-21
2023/12/28 05:52:43;;;;;;;;;;;;;;;;;;2206796;66;2262;-21
2023/12/28 05:55:14;;;;;;;;;;;;;;;;;;2207649;66;3387;-21
2023/12/28 05:57:44;;;;;;;;;;;;;;;;;;2203918;67;2236;-21
2023/12/28 06:00:14;;;;;;;;;;;;;;;;;;2206598;66;2441;-21
2023/12/28 06:02:46;;;;;;;;;;;;;;;;;;2208891;59;2156;-28
2023/12/28 06:05:17;;;;;;;;;;;;;;;;;;2205619;59;2030;-21
2023/12/28 06:08:06;;;;;;;;;;;;;;;;;;2206603;58;2271;-21
2023/12/28 06:10:36;;;;;;;;;;;;;;;;;;2205811;59;2396;-21
2023/12/28 06:13:06;;;;;;;;;;;;;;;;;;2205289;59;2330;-21
2023/12/28 06:15:36;;;;;;;;;;;;;;;;;;2205158;59;3860;-21
2023/12/28 06:18:07;;;;;;;;;;;;;;;;;;2205407;66;2170;-21
2023/12/28 06:20:37;;;;;;;;;;;;;;;;;;2206092;59;1832;-21
2023/12/28 06:23:08;;;;;;;;;;;;;;;;;;2204762;59;2161;-21
2023/12/28 06:25:38;;;;;;;;;;;;;;;;;;2206191;59;1854;-21
2023/12/28 06:28:09;;;;;;;;;;;;;;;;;;2204843;59;2060;-21
2023/12/28 06:30:39;;;;;;;;;;;;;;;;;;2206249;66;2777;-21
2023/12/28 06:33:09;;;;;;;;;;;;;;;;;;2205478;58;2332;-21
2023/12/28 06:35:40;;;;;;;;;;;;;;;;;;2206065;59;2426;-21
2023/12/28 06:38:10;;;;;;;;;;;;;;;;;;2205754;59;2921;-21
2023/12/28 06:40:40;;;;;;;;;;;;;;;;;;2206492;59;2003;-22
2023/12/28 06:43:11;;;;;;;;;;;;;;;;;;2203385;59;1897;-21
2023/12/28 06:45:41;;;;;;;;;;;;;;;;;;2205990;66;1911;-22
2023/12/28 06:48:11;;;;;;;;;;;;;;;;;;2206445;59;1782;-22
2023/12/28 06:50:41;;;;;;;;;;;;;;;;;;2207414;66;1961;-22
2023/12/28 06:53:12;;;;;;;;;;;;;;;;;;2205853;66;1887;-22
2023/12/28 06:55:42;;;;;;;;;;;;;;;;;;2205457;59;2028;-22
2023/12/28 06:58:12;;;;;;;;;;;;;;;;;;2203176;59;2336;-22
2023/12/28 07:00:43;;;;;;;;;;;;;;;;;;2205965;59;2343;-22
2023/12/28 07:03:14;;;;;;;;;;;;;;;;;;2205136;59;2227;-22
2023/12/28 07:05:44;;;;;;;;;;;;;;;;;;2205937;59;1856;-22
2023/12/28 07:08:14;;;;;;;;;;;;;;;;;;2206472;59;2737;-21
2023/12/28 07:10:44;;;;;;;;;;;;;;;;;;2206118;59;2550;-22
2023/12/28 07:13:14;;;;;;;;;;;;;;;;;;2205885;58;1934;-22
2023/12/28 07:15:45;;;;;;;;;;;;;;;;;;2206393;59;2937;-21
2023/12/28 07:18:15;;;;;;;;;;;;;;;;;;2205708;66;2428;-21
2023/12/28 07:20:45;;;;;;;;;;;;;;;;;;2209219;58;2344;-21
2023/12/28 07:23:18;;;;;;;;;;;;;;;;;;2205697;66;2426;-21
2023/12/28 07:25:49;;;;;;;;;;;;;;;;;;2206871;59;2423;-21
2023/12/28 07:28:19;;;;;;;;;;;;;;;;;;2205765;59;2818;-21
2023/12/28 07:30:49;;;;;;;;;;;;;;;;;;2205568;59;2134;-22
2023/12/28 07:33:19;;;;;;;;;;;;;;;;;;2205039;59;2092;-21
2023/12/28 07:35:50;;;;;;;;;;;;;;;;;;2205306;59;2539;-21
2023/12/28 07:38:20;;;;;;;;;;;;;;;;;;2205756;59;3053;-21
2023/12/28 07:40:51;;;;;;;;;;;;;;;;;;2206637;59;2548;-21
2023/12/28 07:43:21;;;;;;;;;;;;;;;;;;2205142;66;2159;-21
2023/12/28 07:45:51;;;;;;;;;;;;;;;;;;2207878;58;2486;-21
2023/12/28 07:48:21;;;;;;;;;;;;;;;;;;2205856;59;2439;-21
2023/12/28 07:50:52;;;;;;;;;;;;;;;;;;2206807;59;2020;-21
2023/12/28 07:53:22;;;;;;;;;;;;;;;;;;2205466;59;2185;-21
2023/12/28 07:55:52;;;;;;;;;;;;;;;;;;2206733;66;1971;-21
2023/12/28 07:58:22;;;;;;;;;;;;;;;;;;2207327;66;3230;-21
2023/12/28 08:00:53;;;;;;;;;;;;;;;;;;2205596;66;1867;-22
2023/12/28 08:03:23;;;;;;;;;;;;;;;;;;2205401;59;2291;-21
2023/12/28 08:05:54;;;;;;;;;;;;;;;;;;2203867;59;2509;-21
2023/12/28 08:08:24;;;;;;;;;;;;;;;;;;2206561;58;2886;-21
2023/12/28 08:10:54;;;;;;;;;;;;;;;;;;2205738;66;2111;-21
2023/12/28 08:13:24;;;;;;;;;;;;;;;;;;2206508;58;2113;-21
2023/12/28 08:15:55;;;;;;;;;;;;;;;;;;2207452;59;1853;-21
2023/12/28 08:18:25;;;;;;;;;;;;;;;;;;2205501;66;1779;-21
2023/12/28 08:20:56;;;;;;;;;;;;;;;;;;2206560;59;2079;-23
2023/12/28 08:23:26;;;;;;;;;;;;;;;;;;2207480;66;3178;-21
2023/12/28 08:25:57;;;;;;;;;;;;;;;;;;2203218;66;2721;-21
2023/12/28 08:28:27;;;;;;;;;;;;;;;;;;2206412;59;3275;-21
2023/12/28 08:30:57;;;;;;;;;;;;;;;;;;2207828;59;2206;-21
2023/12/28 08:33:27;;;;;;;;;;;;;;;;;;2209234;59;2294;-23
2023/12/28 08:35:58;;;;;;;;;;;;;;;;;;2206150;59;3165;-21
2023/12/28 08:38:28;;;;;;;;;;;;;;;;;;2205410;59;2469;-21
2023/12/28 08:40:59;;;;;;;;;;;;;;;;;;2207102;66;2709;-21
2023/12/28 08:43:38;;;;;;;;;;;;;;;;;;2207731;59;2906;-22
2023/12/28 08:46:08;;;;;;;;;;;;;;;;;;2208867;66;2027;-22
2023/12/28 08:48:39;;;;;;;;;;;;;;;;;;2208330;66;1808;-22
2023/12/28 08:51:09;;;;;;;;;;;;;;;;;;2207291;59;2391;-21
2023/12/28 08:53:42;;;;;;;;;;;;;;;;;;2206906;66;1810;-21
2023/12/28 08:56:16;;;;;;;;;;;;;;;;;;2206866;59;2454;-22
2023/12/28 08:58:47;;;;;;;;;;;;;;;;;;2208160;58;2490;-22
2023/12/28 09:01:21;;;;;;;;;;;;;;;;;;2207776;66;1704;-22
2023/12/28 09:03:54;;;;;;;;;;;;;;;;;;2207281;59;1896;-22
2023/12/28 09:06:24;;;;;;;;;;;;;;;;;;2206717;58;2289;-22
2023/12/28 09:08:54;;;;;;;;;;;;;;;;;;2208217;66;2009;-22
2023/12/28 09:11:24;;;;;;;;;;;;;;;;;;2206924;59;2964;-22
2023/12/28 09:13:55;;;;;;;;;;;;;;;;;;2209296;58;1810;-22
2023/12/28 09:16:25;;;;;;;;;;;;;;;;;;2209970;59;2422;-22
2023/12/28 09:18:56;;;;;;;;;;;;;;;;;;2205377;63;2430;-23
2023/12/28 09:21:27;;;;;;;;;;;;;;;;;;2208071;66;2487;-22
2023/12/28 09:23:57;;;;;;;;;;;;;;;;;;2207034;59;1865;-22
2023/12/28 09:26:27;;;;;;;;;;;;;;;;;;2207157;66;1816;-23
2023/12/28 09:28:57;;;;;;;;;;;;;;;;;;2207559;66;2417;-22
2023/12/28 09:31:28;;;;;;;;;;;;;;;;;;2210875;59;2071;-22
2023/12/28 09:33:59;;;;;;;;;;;;;;;;;;2209166;59;2222;-22
2023/12/28 09:36:29;;;;;;;;;;;;;;;;;;2206565;59;2176;-22
2023/12/28 09:39:01;;;;;;;;;;;;;;;;;;2207481;66;2487;-22
2023/12/28 09:41:34;;;;;;;;;;;;;;;;;;2207827;59;1815;-22
2023/12/28 09:44:08;;;;;;;;;;;;;;;;;;2207424;66;2733;-22
2023/12/28 09:46:42;;;;;;;;;;;;;;;;;;2205941;59;2288;-22
2023/12/28 09:49:19;;;;;;;;;;;;;;;;;;2209079;59;2056;-22
2023/12/28 09:51:49;;;;;;;;;;;;;;;;;;2205123;59;2127;-22
2023/12/28 09:54:19;;;;;;;;;;;;;;;;;;2208052;66;3172;-22
2023/12/28 09:56:50;;;;;;;;;;;;;;;;;;2205596;59;2712;-22
2023/12/28 09:59:20;;;;;;;;;;;;;;;;;;2206773;66;2145;-22
2023/12/28 10:01:50;;;;;;;;;;;;;;;;;;2205318;66;2596;-22
2023/12/28 10:04:21;;;;;;;;;;;;;;;;;;2206353;59;2314;-22
2023/12/28 10:06:51;;;;;;;;;;;;;;;;;;2206227;58;2370;-22
2023/12/28 10:09:21;;;;;;;;;;;;;;;;;;2204387;59;2013;-22
2023/12/28 10:11:52;;;;;;;;;;;;;;;;;;2205709;58;2602;-22
2023/12/28 10:14:23;;;;;;;;;;;;;;;;;;2205883;59;2721;-22
2023/12/28 10:16:53;;;;;;;;;;;;;;;;;;2208730;66;1903;-22
2023/12/28 10:19:24;;;;;;;;;;;;;;;;;;2205856;59;2404;-22
2023/12/28 10:21:54;;;;;;;;;;;;;;;;;;2208753;59;3432;-22
2023/12/28 10:24:25;;;;;;;;;;;;;;;;;;2206989;59;1900;-22
2023/12/28 10:26:55;;;;;;;;;;;;;;;;;;2208145;59;2677;-22
2023/12/28 10:29:26;;;;;;;;;;;;;;;;;;2206677;59;2806;-22
2023/12/28 10:31:56;;;;;;;;;;;;;;;;;;2206377;59;2755;-22
2023/12/28 10:34:26;;;;;;;;;;;;;;;;;;2207426;59;2422;-22
2023/12/28 10:37:22;;;;;;;;;;;;;;;;;;2209970;59;1927;-22
2023/12/28 10:40:17;;;;;;;;;;;;;;;;;;2206735;66;2742;-22
2023/12/28 10:43:12;;;;;;;;;;;;;;;;;;2208556;59;2256;-22
2023/12/28 10:46:07;;;;;;;;;;;;;;;;;;2204593;59;2352;-22
2023/12/28 10:49:02;;;;;;;;;;;;;;;;;;2206812;59;2619;-22
2023/12/28 10:51:58;;;;;;;;;;;;;;;;;;2207068;58;2301;-22
2023/12/28 10:54:53;;;;;;;;;;;;;;;;;;2206530;63;2445;-22
2023/12/28 10:57:48;;;;;;;;;;;;;;;;;;2204769;59;1767;-22
2023/12/28 11:00:44;;;;;;;;;;;;;;;;;;2205660;59;2489;-22
2023/12/28 11:03:18;;;;;;;;;;;;;;;;;;2206801;59;1985;-22
2023/12/28 11:05:49;;;;;;;;;;;;;;;;;;2207922;59;1797;-22
2023/12/28 11:08:19;;;;;;;;;;;;;;;;;;2208492;58;2393;-21
2023/12/28 11:10:50;;;;;;;;;;;;;;;;;;2206419;59;2697;-22
2023/12/28 11:13:21;;;;;;;;;;;;;;;;;;2206272;58;2456;-22
2023/12/28 11:15:52;;;;;;;;;;;;;;;;;;2207784;59;1865;-22
2023/12/28 11:18:24;;;;;;;;;;;;;;;;;;2205293;59;2249;-21
2023/12/28 11:20:55;;;;;;;;;;;;;;;;;;2206156;59;2402;-22
2023/12/28 11:23:26;;;;;;;;;;;;;;;;;;2203098;59;2087;-22
2023/12/28 11:25:56;;;;;;;;;;;;;;;;;;2208288;59;2771;-22
2023/12/28 11:28:27;;;;;;;;;;;;;;;;;;2204927;66;1918;-22
2023/12/28 11:30:57;;;;;;;;;;;;;;;;;;2204516;59;2645;-22
2023/12/28 11:33:30;;;;;;;;;;;;;;;;;;2205284;59;2469;-21
2023/12/28 11:36:00;;;;;;;;;;;;;;;;;;2206092;59;2353;-22
2023/12/28 11:38:31;;;;;;;;;;;;;;;;;;2194480;59;1795;-21
2023/12/28 11:41:03;;;;;;;;;;;;;;;;;;2188359;59;2233;-22
2023/12/28 11:43:34;;;;;;;;;;;;;;;;;;2185478;59;2070;-22
2023/12/28 11:46:07;;;;;;;;;;;;;;;;;;2185788;59;2027;-22
2023/12/28 11:48:37;;;;;;;;;;;;;;;;;;2182809;59;2029;-22
2023/12/28 11:51:08;;;;;;;;;;;;;;;;;;2186103;59;2438;-22
2023/12/28 11:53:38;;;;;;;;;;;;;;;;;;2185890;59;2254;-22
2023/12/28 11:56:10;;;;;;;;;;;;;;;;;;2186752;59;2637;-22
2023/12/28 11:58:44;;;;;;;;;;;;;;;;;;2184864;59;2719;-22
2023/12/28 12:01:14;;;;;;;;;;;;;;;;;;2184493;59;2601;-22
2023/12/28 12:03:44;;;;;;;;;;;;;;;;;;2185922;59;2727;-22
2023/12/28 12:06:14;;;;;;;;;;;;;;;;;;2184341;59;1884;-22
2023/12/28 12:08:49;;;;;;;;;;;;;;;;;;2185593;58;2571;-22
2023/12/28 12:11:19;;;;;;;;;;;;;;;;;;2185414;59;3272;-22
2023/12/28 12:13:51;;;;;;;;;;;;;;;;;;2204279;58;2455;-21
2023/12/28 12:16:21;;;;;;;;;;;;;;;;;;2198418;58;2553;-21
2023/12/28 12:18:51;;;;;;;;;;;;;;;;;;2197187;58;2990;-22
2023/12/28 12:21:23;;;;;;;;;;;;;;;;;;2197194;59;2161;-22
2023/12/28 12:23:54;;;;;;;;;;;;;;;;;;2203916;59;2226;-22
2023/12/28 12:26:26;;;;;;;;;;;;;;;;;;2204389;58;2206;-22
2023/12/28 12:28:56;;;;;;;;;;;;;;;;;;2203138;59;3496;-21
2023/12/28 12:31:28;;;;;;;;;;;;;;;;;;2204223;59;3634;-22
2023/12/28 12:33:58;;;;;;;;;;;;;;;;;;2207126;59;2439;-22
2023/12/28 12:36:28;;;;;;;;;;;;;;;;;;2205535;59;2175;-22
2023/12/28 12:38:59;;;;;;;;;;;;;;;;;;2206600;59;2356;-22
2023/12/28 12:44:10;;;;;;;;;;;;;;;;;;2203186;59;2081;-24
2023/12/28 12:46:40;;;;;;;;;;;;;;;;;;2204149;59;2297;-24
2023/12/28 12:49:11;;;;;;;;;;;;;;;;;;2205231;58;2540;-24
2023/12/28 12:51:41;;;;;;;;;;;;;;;;;;2204092;59;2000;-24
2023/12/28 12:54:11;;;;;;;;;;;;;;;;;;2205866;59;2433;-24
2023/12/28 12:56:45;;;;;;;;;;;;;;;;;;2204094;59;1851;-24
2023/12/28 12:59:17;;;;;;;;;;;;;;;;;;2205701;59;2260;-24
2023/12/28 13:01:48;;;;;;;;;;;;;;;;;;2205205;59;2130;-24
2023/12/28 13:04:18;;;;;;;;;;;;;;;;;;2203685;59;2261;-25
2023/12/28 13:06:49;;;;;;;;;;;;;;;;;;2206618;58;1921;-24
2023/12/28 13:09:20;;;;;;;;;;;;;;;;;;2204786;59;2470;-24
2023/12/28 13:11:51;;;;;;;;;;;;;;;;;;2204908;59;1936;-24
2023/12/28 13:14:21;;;;;;;;;;;;;;;;;;2204609;59;1953;-26
2023/12/28 13:16:54;;;;;;;;;;;;;;;;;;2208011;59;2602;-26
2023/12/28 13:19:24;;;;;;;;;;;;;;;;;;2204376;59;1951;-26
2023/12/28 13:21:55;;;;;;;;;;;;;;;;;;2205637;66;1986;-26
2023/12/28 13:24:25;;;;;;;;;;;;;;;;;;2205289;66;2660;-24
2023/12/28 13:26:55;;;;;;;;;;;;;;;;;;2204661;66;2038;-26
2023/12/28 13:29:26;;;;;;;;;;;;;;;;;;2204927;59;2779;-26
2023/12/28 13:31:57;;;;;;;;;;;;;;;;;;2204414;59;3517;-24
2023/12/28 13:34:28;;;;;;;;;;;;;;;;;;2204538;59;1822;-24
2023/12/28 13:37:01;;;;;;;;;;;;;;;;;;2205632;66;2535;-26
2023/12/28 13:39:31;;;;;;;;;;;;;;;;;;2205782;60;1828;-26
2023/12/28 13:42:01;;;;;;;;;;;;;;;;;;2205681;59;1808;-26
2023/12/28 13:44:32;;;;;;;;;;;;;;;;;;2207428;66;2015;-26
2023/12/28 13:47:02;;;;;;;;;;;;;;;;;;2206996;59;2444;-26
2023/12/28 13:49:33;;;;;;;;;;;;;;;;;;2206702;59;1927;-26
2023/12/28 13:52:03;;;;;;;;;;;;;;;;;;2206139;66;2225;-26
2023/12/28 13:54:33;;;;;;;;;;;;;;;;;;2202978;59;2823;-26
2023/12/28 13:57:04;;;;;;;;;;;;;;;;;;2204918;59;2313;-26
2023/12/28 13:59:34;;;;;;;;;;;;;;;;;;2203069;59;1752;-26
2023/12/28 14:02:04;;;;;;;;;;;;;;;;;;2206148;59;2154;-26
2023/12/28 14:04:34;;;;;;;;;;;;;;;;;;2206805;66;1798;-26
2023/12/28 14:07:05;;;;;;;;;;;;;;;;;;2205991;58;3235;-26
2023/12/28 14:09:36;;;;;;;;;;;;;;;;;;2205837;59;2290;-26
2023/12/28 14:12:06;;;;;;;;;;;;;;;;;;2205401;66;2067;-26
2023/12/28 14:14:36;;;;;;;;;;;;;;;;;;2206299;59;2115;-26
2023/12/28 14:17:06;;;;;;;;;;;;;;;;;;2207264;66;1861;-26
2023/12/28 14:19:37;;;;;;;;;;;;;;;;;;2206053;59;2534;-26
2023/12/28 14:22:07;;;;;;;;;;;;;;;;;;2205791;59;2303;-26
2023/12/28 14:24:38;;;;;;;;;;;;;;;;;;2205640;59;2383;-26
2023/12/28 14:27:10;;;;;;;;;;;;;;;;;;2206760;66;2325;-26
2023/12/28 14:29:40;;;;;;;;;;;;;;;;;;2204924;59;1982;-26
2023/12/28 14:32:11;;;;;;;;;;;;;;;;;;2204225;59;3090;-26
2023/12/28 14:34:41;;;;;;;;;;;;;;;;;;2205403;59;1778;-26
2023/12/28 14:37:11;;;;;;;;;;;;;;;;;;2202071;66;1832;-26
2023/12/28 14:39:43;;;;;;;;;;;;;;;;;;2205482;59;3023;-26
2023/12/28 14:42:13;;;;;;;;;;;;;;;;;;2205596;59;2151;-26
2023/12/28 14:44:43;;;;;;;;;;;;;;;;;;2204224;66;2611;-26
2023/12/28 14:47:14;;;;;;;;;;;;;;;;;;2205764;66;1992;-26
2023/12/28 14:49:44;;;;;;;;;;;;;;;;;;2205601;59;1998;-26
2023/12/28 14:52:15;;;;;;;;;;;;;;;;;;2204872;66;1947;-26
2023/12/28 14:54:45;;;;;;;;;;;;;;;;;;2204351;66;1988;-26
2023/12/28 14:57:16;;;;;;;;;;;;;;;;;;2206508;59;2001;-26
2023/12/28 14:59:46;;;;;;;;;;;;;;;;;;2204906;59;2262;-26
2023/12/28 15:02:16;;;;;;;;;;;;;;;;;;2203248;59;2073;-26
2023/12/28 15:04:46;;;;;;;;;;;;;;;;;;2201518;66;1790;-26
2023/12/28 15:07:16;;;;;;;;;;;;;;;;;;2206053;59;1837;-26
2023/12/28 15:09:47;;;;;;;;;;;;;;;;;;2204888;66;2390;-26
2023/12/28 15:12:17;;;;;;;;;;;;;;;;;;2202345;59;1875;-25
2023/12/28 15:14:47;;;;;;;;;;;;;;;;;;2204985;58;2079;-26
2023/12/28 15:17:18;;;;;;;;;;;;;;;;;;2205192;59;1840;-26
2023/12/28 15:19:48;;;;;;;;;;;;;;;;;;2204371;59;1808;-26
2023/12/28 15:22:19;;;;;;;;;;;;;;;;;;2206660;59;1853;-26
2023/12/28 15:24:49;;;;;;;;;;;;;;;;;;2204992;59;1802;-26
2023/12/28 15:27:22;;;;;;;;;;;;;;;;;;2204386;59;2073;-26
2023/12/28 15:29:52;;;;;;;;;;;;;;;;;;2203498;60;2159;-26
2023/12/28 15:32:22;;;;;;;;;;;;;;;;;;2200783;59;3560;-26
2023/12/28 15:34:53;;;;;;;;;;;;;;;;;;2200390;59;3521;-26
2023/12/28 15:37:23;;;;;;;;;;;;;;;;;;2204169;59;1779;-25
2023/12/28 15:39:53;;;;;;;;;;;;;;;;;;2202904;59;2610;-26
2023/12/28 15:42:23;;;;;;;;;;;;;;;;;;2203780;62;2316;-26
2023/12/28 15:44:54;;;;;;;;;;;;;;;;;;2203999;66;2753;-26
2023/12/28 15:47:24;;;;;;;;;;;;;;;;;;2204640;59;2340;-26
2023/12/28 15:49:54;;;;;;;;;;;;;;;;;;2204248;66;2080;-26
2023/12/28 15:52:24;;;;;;;;;;;;;;;;;;2205629;66;1893;-26
2023/12/28 15:54:55;;;;;;;;;;;;;;;;;;2205610;59;1920;-26
2023/12/28 15:57:25;;;;;;;;;;;;;;;;;;2205594;66;1654;-26
2023/12/28 15:59:58;;;;;;;;;;;;;;;;;;2198973;59;2518;-26
2023/12/28 16:02:29;;;;;;;;;;;;;;;;;;2202964;59;2429;-26
2023/12/28 16:05:00;;;;;;;;;;;;;;;;;;2205280;59;1675;-26
2023/12/28 16:07:30;;;;;;;;;;;;;;;;;;2204496;59;2142;-26
2023/12/28 16:10:00;;;;;;;;;;;;;;;;;;2206023;66;2408;-26
2023/12/28 16:12:30;;;;;;;;;;;;;;;;;;2204536;59;2158;-25
2023/12/28 16:15:01;;;;;;;;;;;;;;;;;;2206531;58;2233;-25
2023/12/28 16:17:31;;;;;;;;;;;;;;;;;;2204208;66;2112;-25
2023/12/28 16:20:02;;;;;;;;;;;;;;;;;;2205540;66;2383;-26
2023/12/28 16:22:32;;;;;;;;;;;;;;;;;;2204523;59;2596;-26
2023/12/28 16:25:03;;;;;;;;;;;;;;;;;;2206013;59;1908;-26
2023/12/28 16:27:33;;;;;;;;;;;;;;;;;;2204550;66;2010;-25
2023/12/28 16:30:04;;;;;;;;;;;;;;;;;;2204589;59;2181;-25
2023/12/28 16:32:34;;;;;;;;;;;;;;;;;;2203256;59;2750;-25
2023/12/28 16:35:05;;;;;;;;;;;;;;;;;;2203214;59;3206;-25
2023/12/28 16:37:36;;;;;;;;;;;;;;;;;;2204380;59;2768;-26
2023/12/28 16:40:06;;;;;;;;;;;;;;;;;;2204103;59;2512;-26
2023/12/28 16:42:37;;;;;;;;;;;;;;;;;;2203956;59;2322;-26
2023/12/28 16:45:08;;;;;;;;;;;;;;;;;;2204671;59;2728;-26
2023/12/28 16:47:40;;;;;;;;;;;;;;;;;;2205256;66;1929;-25
2023/12/28 16:50:10;;;;;;;;;;;;;;;;;;2205247;66;2181;-25
2023/12/28 16:52:40;;;;;;;;;;;;;;;;;;2205159;59;2261;-26
2023/12/28 16:55:11;;;;;;;;;;;;;;;;;;2204881;59;2459;-25
2023/12/28 16:57:41;;;;;;;;;;;;;;;;;;2205974;66;2145;-26
2023/12/28 17:00:12;;;;;;;;;;;;;;;;;;2204690;59;2249;-25
2023/12/28 17:02:42;;;;;;;;;;;;;;;;;;2204526;59;2252;-26
2023/12/28 17:05:12;;;;;;;;;;;;;;;;;;2205448;59;2732;-26
2023/12/28 17:07:43;;;;;;;;;;;;;;;;;;2206590;58;2018;-25
2023/12/28 17:10:13;;;;;;;;;;;;;;;;;;2204747;59;1991;-26
2023/12/28 17:12:44;;;;;;;;;;;;;;;;;;2205451;59;2004;-24
2023/12/28 17:15:16;;;;;;;;;;;;;;;;;;2205887;58;2617;-23
2023/12/28 17:17:46;;;;;;;;;;;;;;;;;;2203516;59;2101;-26
2023/12/28 17:20:17;;;;;;;;;;;;;;;;;;2206397;59;3263;-25
2023/12/28 17:22:50;;;;;;;;;;;;;;;;;;2203390;58;3445;-25
2023/12/28 17:25:59;;;;;;;;;;;;;;;;;;2201987;59;2322;-26
2023/12/28 17:28:37;;;;;;;;;;;;;;;;;;2192824;59;2470;-25
2023/12/28 17:31:11;;;;;;;;;;;;;;;;;;2192853;59;2110;-25
2023/12/28 17:33:41;;;;;;;;;;;;;;;;;;2199700;59;2343;-26